Time;durP1;ratioP1;P1;durP2;ratioP2;P2;SDS_P1;SDS_P2;PMS_P1;PMS_P2;Temp;Humidity;BMP_temperature;BMP_pressure;BME280_temperature;BME280_humidity;BME280_pressure;Samples;Min_cycle;Max_cycle;Signal;HPM_P1;HPM_P2
2023/10/27 00:01:24;;;;;;;6.25;4.18;;;10.30;99.90;;;10.87;100.00;95795.91;10522043;22;20744;-66
2023/10/27 00:06:32;;;;;;;6.40;4.00;;;10.30;99.90;;;10.85;100.00;95807.81;10402000;28;20225;-66
2023/10/27 00:11:36;;;;;;;7.70;4.20;;;10.40;99.90;;;10.80;100.00;95800.91;10399836;28;20313;-67
2023/10/27 00:16:40;;;;;;;6.38;4.30;;;10.30;99.90;;;10.75;100.00;95805.03;10397262;28;20624;-67
2023/10/27 00:21:43;;;;;;;5.30;4.07;;;10.30;99.90;;;10.81;100.00;95794.09;10395691;28;20218;-68
2023/10/27 00:26:47;;;;;;;5.60;4.00;;;10.30;99.90;;;10.78;100.00;95797.44;10396690;28;20720;-67
2023/10/27 00:31:52;;;;;;;5.93;4.32;;;10.30;99.90;;;10.78;100.00;95809.34;10397936;28;20232;-67
2023/10/27 00:36:55;;;;;;;4.32;3.95;;;10.30;99.90;;;10.78;100.00;95805.09;10398072;28;20222;-68
2023/10/27 00:41:58;;;;;;;7.97;5.20;;;10.30;99.90;;;10.74;100.00;95805.88;10396820;28;20231;-68
2023/10/27 00:47:03;;;;;;;5.03;4.50;;;10.30;99.90;;;10.74;100.00;95821.22;10398093;28;20225;-66
2023/10/27 00:52:07;;;;;;;5.35;4.32;;;10.30;99.90;;;10.77;100.00;95818.72;10398975;28;20226;-66
2023/10/27 00:57:10;;;;;;;4.38;3.97;;;10.30;99.90;;;10.73;100.00;95819.50;10397922;28;20241;-67
2023/10/27 01:02:17;;;;;;;5.10;4.22;;;10.20;99.90;;;10.77;100.00;95815.31;10397328;28;20222;-67
2023/10/27 01:07:21;;;;;;;8.32;4.95;;;10.30;99.90;;;10.79;100.00;95814.50;10399766;28;20222;-68
2023/10/27 01:12:25;;;;;;;4.38;3.70;;;10.30;99.90;;;10.76;100.00;95799.13;10399164;28;20229;-67
2023/10/27 01:17:29;;;;;;;4.95;3.42;;;10.20;99.90;;;10.81;100.00;95802.63;10395704;28;20744;-67
2023/10/27 01:22:34;;;;;;;4.80;3.15;;;10.20;99.90;;;10.77;100.00;95792.31;10397392;28;20657;-69
2023/10/27 01:27:39;;;;;;;6.55;3.65;;;10.20;99.90;;;10.80;100.00;95789.81;10397481;28;20233;-68
2023/10/27 01:32:43;;;;;;;4.78;3.22;;;10.20;99.90;;;10.72;100.00;95781.97;10394957;28;20226;-68
2023/10/27 01:37:46;;;;;;;6.05;3.55;;;10.10;99.90;;;10.59;100.00;95774.88;10398424;28;20795;-68
2023/10/27 01:42:51;;;;;;;4.25;3.05;;;10.10;99.90;;;10.59;100.00;95774.88;10395103;28;20221;-69
2023/10/27 01:47:54;;;;;;;4.95;3.00;;;10.10;99.90;;;10.61;100.00;95770.66;10395267;28;20245;-71
2023/10/27 01:52:57;;;;;;;4.20;2.88;;;10.00;99.90;;;10.49;100.00;95783.13;10400970;28;20300;-68
2023/10/27 01:58:02;;;;;;;2.70;2.50;;;10.00;99.90;;;10.41;100.00;95771.88;10397943;28;20300;-69
2023/10/27 02:03:05;;;;;;;3.25;2.20;;;9.90;99.90;;;10.52;100.00;95762.78;10398158;28;20312;-67
2023/10/27 02:08:09;;;;;;;3.28;2.30;;;9.90;99.90;;;10.42;100.00;95768.50;10396238;28;20332;-72
2023/10/27 02:13:13;;;;;;;4.47;2.13;;;9.80;99.90;;;10.28;100.00;95766.50;10395476;28;20229;-67
2023/10/27 02:18:16;;;;;;;3.00;1.92;;;9.70;99.90;;;10.27;100.00;95767.31;10395886;28;20238;-67
2023/10/27 02:23:19;;;;;;;5.28;2.47;;;9.70;99.90;;;10.20;100.00;95765.41;10399101;28;20225;-68
2023/10/27 02:28:24;;;;;;;3.88;2.25;;;9.70;99.90;;;10.16;100.00;95773.81;10402005;28;20604;-67
2023/10/27 02:33:27;;;;;;;3.90;2.10;;;9.70;99.90;;;10.06;100.00;95762.50;10395541;28;20233;-70
2023/10/27 02:38:30;;;;;;;4.53;2.40;;;9.60;99.90;;;10.05;100.00;95759.94;10395637;28;20754;-68
2023/10/27 02:43:34;;;;;;;3.55;2.10;;;9.60;99.90;;;10.04;100.00;95758.19;10392468;28;20233;-67
2023/10/27 02:48:38;;;;;;;3.05;2.47;;;9.60;99.90;;;10.01;100.00;95755.56;10392261;28;20219;-69
2023/10/27 02:53:41;;;;;;;4.50;2.30;;;9.60;99.90;;;10.04;100.00;95753.94;10393256;28;20279;-68
2023/10/27 02:58:46;;;;;;;3.88;2.20;;;9.60;99.90;;;10.11;100.00;95745.63;10394079;28;20250;-68
2023/10/27 03:03:49;;;;;;;4.47;2.88;;;9.70;99.90;;;10.12;100.00;95752.44;10392390;28;20327;-67
2023/10/27 03:08:52;;;;;;;4.07;2.83;;;9.70;99.90;;;10.14;100.00;95765.25;10397757;28;20233;-68
2023/10/27 03:13:57;;;;;;;4.32;2.97;;;9.70;99.90;;;10.13;100.00;95754.19;10394616;28;20228;-67
2023/10/27 03:19:00;;;;;;;5.47;3.40;;;9.70;99.90;;;10.11;100.00;95747.31;10393688;28;20618;-71
2023/10/27 03:24:04;;;;;;;3.55;3.00;;;9.70;99.90;;;10.10;100.00;95753.22;10394424;28;20300;-68
2023/10/27 03:29:08;;;;;;;3.58;3.17;;;9.60;99.90;;;10.08;100.00;95742.13;10393877;28;20225;-68
2023/10/27 03:34:12;;;;;;;3.53;3.00;;;9.60;99.90;;;10.12;100.00;95732.00;10391628;28;20222;-67
2023/10/27 03:39:15;;;;;;;4.43;2.63;;;9.70;99.90;;;10.10;100.00;95732.81;10396329;28;20229;-68
2023/10/27 03:44:19;;;;;;;5.28;2.72;;;9.60;99.90;;;10.14;100.00;95739.72;10402301;28;20233;-66
2023/10/27 03:49:22;;;;;;;4.00;3.22;;;9.60;99.90;;;10.10;100.00;95726.03;10400502;28;20708;-66
2023/10/27 03:54:26;;;;;;;3.97;3.38;;;9.60;99.90;;;10.08;100.00;95724.28;10398771;28;20238;-70
2023/10/27 03:59:30;;;;;;;6.03;4.78;;;9.60;99.90;;;10.01;100.00;95719.81;10405382;28;20221;-66
2023/10/27 04:04:33;;;;;;;4.55;4.15;;;9.50;99.90;;;9.99;100.00;95736.81;10395377;28;20233;-71
2023/10/27 04:09:37;;;;;;;4.28;3.92;;;9.50;99.90;;;10.01;100.00;95732.59;10397455;28;20586;-71
2023/10/27 04:14:41;;;;;;;5.85;4.03;;;9.50;99.90;;;9.93;100.00;95729.88;10392505;28;20245;-70
2023/10/27 04:19:44;;;;;;;5.07;3.50;;;9.40;99.90;;;9.82;100.00;95724.50;10393376;28;20225;-67
2023/10/27 04:24:48;;;;;;;3.92;3.63;;;9.40;99.90;;;9.76;100.00;95711.59;10398388;28;20325;-66
2023/10/27 04:29:52;;;;;;;5.15;4.63;;;9.30;99.90;;;9.78;100.00;95706.50;10399155;28;20236;-66
2023/10/27 04:34:56;;;;;;;4.63;4.18;;;9.30;99.90;;;9.70;100.00;95716.53;10397437;28;20233;-68
2023/10/27 04:39:59;;;;;;;4.82;3.83;;;9.20;99.90;;;9.76;100.00;95706.47;10403220;28;20233;-68
2023/10/27 04:45:05;;;;;;;3.92;3.58;;;9.30;99.90;;;9.73;100.00;95726.81;10396915;28;20267;-69
2023/10/27 04:50:09;;;;;;;4.32;3.92;;;9.30;99.90;;;9.64;100.00;95721.44;10392523;28;20277;-69
2023/10/27 04:55:13;;;;;;;3.65;3.17;;;9.20;99.90;;;9.75;100.00;95725.13;10396103;28;20602;-67
2023/10/27 05:00:18;;;;;;;7.00;5.20;;;9.30;99.90;;;9.70;100.00;95722.50;10395856;28;20606;-68
2023/10/27 05:05:21;;;;;;;5.65;5.13;;;9.20;99.90;;;9.76;100.00;95726.88;10397392;28;20763;-67
2023/10/27 05:10:24;;;;;;;3.78;3.47;;;9.30;99.90;;;9.76;100.00;95736.19;10396701;28;20274;-67
2023/10/27 05:15:29;;;;;;;3.53;3.15;;;9.30;99.90;;;9.84;100.00;95742.38;10385867;28;20291;-68
2023/10/27 05:20:37;;;;;;;3.40;3.10;;;9.40;99.90;;;9.88;100.00;95737.41;10397244;28;20218;-67
2023/10/27 05:25:40;;;;;;;2.67;2.40;;;9.40;99.90;;;9.86;100.00;95733.06;10397484;28;20229;-66
2023/10/27 05:30:46;;;;;;;3.35;2.72;;;9.40;99.90;;;9.88;100.00;95732.28;10389956;28;20226;-67
2023/10/27 05:35:50;;;;;;;2.45;2.22;;;9.40;99.90;;;9.93;100.00;95720.53;10398157;28;20245;-68
2023/10/27 05:40:53;;;;;;;2.33;2.15;;;9.50;99.90;;;9.96;100.00;95717.19;10397862;28;20605;-67
2023/10/27 05:45:57;;;;;;;3.03;2.30;;;9.50;99.90;;;9.99;100.00;95724.91;10399261;28;20825;-67
2023/10/27 05:51:00;;;;;;;3.10;2.90;;;9.50;99.90;;;9.90;100.00;95735.75;10397136;28;20242;-67
2023/10/27 05:56:05;;;;;;;6.47;5.97;;;9.40;99.90;;;9.96;100.00;95755.47;10403569;28;20234;-68
2023/10/27 06:01:09;;;;;;;8.80;5.78;;;9.50;99.90;;;10.01;100.00;95753.84;10394493;28;20237;-67
2023/10/27 06:06:12;;;;;;;4.88;4.30;;;9.50;99.90;;;10.00;100.00;95761.50;10398010;28;20236;-67
2023/10/27 06:11:15;;;;;;;4.72;3.85;;;9.50;99.90;;;10.02;100.00;95765.81;10389379;28;20226;-69
2023/10/27 06:16:20;;;;;;;6.65;5.15;;;9.60;99.90;;;10.08;100.00;95780.41;10395745;28;20708;-66
2023/10/27 06:21:23;;;;;;;6.25;5.70;;;9.60;99.90;;;10.07;100.00;95782.13;10392262;28;20242;-66
2023/10/27 06:26:26;;;;;;;5.63;5.05;;;9.60;99.90;;;10.04;100.00;95784.56;10398268;28;20229;-66
2023/10/27 06:31:30;;;;;;;5.82;5.32;;;9.60;99.90;;;10.05;100.00;95790.56;10390451;28;20674;-66
2023/10/27 06:36:34;;;;;;;4.95;4.55;;;9.60;99.90;;;10.04;100.00;95793.91;10392337;28;20601;-67
2023/10/27 06:41:37;;;;;;;4.35;4.07;;;9.60;99.90;;;10.07;100.00;95799.97;10391636;28;20240;-66
2023/10/27 06:46:44;;;;;;;5.50;4.18;;;9.60;99.90;;;10.15;100.00;95802.72;10391317;28;20239;-67
2023/10/27 06:51:47;;;;;;;4.45;4.22;;;9.70;99.90;;;10.14;100.00;95811.19;10393383;28;20298;-67
2023/10/27 06:56:50;;;;;;;4.38;4.07;;;9.60;99.90;;;10.17;100.00;95824.03;10390651;28;20244;-67
2023/10/27 07:01:55;;;;;;;5.65;5.07;;;9.60;99.90;;;10.02;100.00;95833.88;10390438;28;20221;-69
2023/10/27 07:06:58;;;;;;;4.53;4.13;;;9.60;99.90;;;10.15;100.00;95824.00;10393621;28;20218;-67
2023/10/27 07:12:03;;;;;;;4.03;3.50;;;9.60;99.90;;;10.32;100.00;95831.25;10392181;28;20225;-67
2023/10/27 07:17:08;;;;;;;3.72;3.08;;;9.80;99.90;;;10.43;100.00;95845.16;10394620;28;20268;-69
2023/10/27 07:22:11;;;;;;;4.07;3.60;;;9.80;99.90;;;10.45;100.00;95848.63;10401990;28;20237;-72
2023/10/27 07:27:14;;;;;;;3.03;2.83;;;9.90;99.90;;;10.50;100.00;95851.25;10401181;28;20232;-67
2023/10/27 07:32:18;;;;;;;5.60;2.90;;;10.00;99.90;;;10.64;100.00;95847.34;10399674;28;20230;-67
2023/10/27 07:37:23;;;;;;;2.85;2.67;;;10.20;99.90;;;10.89;100.00;95853.91;10401364;28;20234;-66
2023/10/27 07:42:26;;;;;;;3.38;2.33;;;10.20;99.90;;;10.92;100.00;95871.00;10402955;28;20729;-67
2023/10/27 07:47:31;;;;;;;3.72;2.40;;;10.30;99.90;;;11.02;100.00;95872.97;10398855;28;20308;-69
2023/10/27 07:52:34;;;;;;;2.53;2.10;;;10.40;99.90;;;10.91;100.00;95880.38;10400276;28;20237;-67
2023/10/27 07:57:38;;;;;;;2.72;2.53;;;10.40;99.90;;;11.09;100.00;95884.19;10404668;28;20230;-67
2023/10/27 08:02:42;;;;;;;2.50;2.30;;;10.50;99.90;;;11.30;100.00;95899.13;10399177;28;20234;-68
2023/10/27 08:07:47;;;;;;;2.40;2.30;;;10.60;99.90;;;11.30;100.00;95909.38;10397264;28;20226;-68
2023/10/27 08:12:50;;;;;;;2.47;2.28;;;10.70;99.90;;;11.37;100.00;95916.38;10396386;28;20236;-67
2023/10/27 08:17:54;;;;;;;2.08;1.98;;;10.80;99.90;;;11.37;100.00;95916.38;10397619;28;20320;-67
2023/10/27 08:22:59;;;;;;;2.25;2.05;;;10.80;99.90;;;11.40;100.00;95922.41;10398380;28;20229;-68
2023/10/27 08:28:02;;;;;;;2.58;2.30;;;10.80;99.90;;;11.39;100.00;95924.91;10400001;28;20610;-66
2023/10/27 08:33:08;;;;;;;2.50;2.30;;;10.90;99.90;;;11.38;100.00;95930.88;10398827;28;20712;-67
2023/10/27 08:38:11;;;;;;;2.55;1.80;;;10.90;99.90;;;11.43;100.00;95944.63;10396757;28;20371;-68
2023/10/27 08:43:14;;;;;;;2.17;2.08;;;10.90;99.90;;;11.31;100.00;95952.03;10396851;28;20232;-71
2023/10/27 08:48:19;;;;;;;2.15;2.05;;;10.90;99.90;;;11.42;100.00;95950.59;10399133;28;20244;-67
2023/10/27 08:53:22;;;;;;;1.73;1.63;;;11.00;99.90;;;11.52;100.00;95946.53;10400517;28;20225;-69
2023/10/27 08:58:26;;;;;;;1.52;1.42;;;11.10;99.90;;;11.56;100.00;95964.56;10394824;28;20234;-67
2023/10/27 09:03:31;;;;;;;1.67;1.58;;;11.20;99.90;;;11.39;100.00;95968.41;10396528;28;20221;-67
2023/10/27 09:08:34;;;;;;;2.05;1.73;;;11.10;99.90;;;11.49;100.00;95968.66;10397273;28;20709;-69
2023/10/27 09:13:39;;;;;;;1.77;1.67;;;11.10;99.90;;;11.50;100.00;95985.75;10397858;28;20616;-67
2023/10/27 09:18:44;;;;;;;1.80;1.70;;;11.10;99.90;;;11.46;100.00;95988.19;10392181;28;20635;-67
2023/10/27 09:23:48;;;;;;;1.50;1.50;;;11.10;99.90;;;11.41;100.00;95990.63;10396072;28;20523;-66
2023/10/27 09:29:01;;;;;;;1.70;1.60;;;11.00;99.90;;;11.41;100.00;95987.22;10394822;28;20225;-67
2023/10/27 09:34:20;;;;;;;2.00;1.80;;;10.90;99.90;;;11.56;100.00;95989.25;10396251;28;20662;-69
2023/10/27 09:39:24;;;;;;;1.90;1.80;;;11.00;99.90;;;11.48;100.00;95984.00;10395056;28;20304;-68
2023/10/27 09:44:35;;;;;;;1.83;1.80;;;11.10;99.90;;;11.61;100.00;95998.78;10401534;28;20232;-68
2023/10/27 09:49:41;;;;;;;1.48;1.38;;;11.10;99.90;;;11.52;100.00;96002.81;10394792;28;20230;-66
2023/10/27 09:54:45;;;;;;;2.03;1.20;;;11.00;99.90;;;11.66;100.00;96004.84;10396734;28;20225;-66
2023/10/27 09:59:49;;;;;;;1.30;1.17;;;11.10;99.90;;;11.76;100.00;96015.28;10398484;28;20242;-67
2023/10/27 10:05:01;;;;;;;1.38;1.30;;;11.20;99.90;;;11.86;100.00;96025.81;10397484;28;20265;-68
2023/10/27 10:10:26;;;;;;;1.52;1.42;;;11.30;99.90;;;11.85;100.00;96024.09;10401066;28;20229;-67
2023/10/27 10:15:32;;;;;;;2.47;2.00;;;11.40;99.90;;;11.77;100.00;96014.50;10398757;28;20337;-68
2023/10/27 10:20:58;;;;;;;1.90;1.80;;;11.50;99.90;;;11.89;100.00;96014.78;10394635;28;20240;-66
2023/10/27 10:26:02;;;;;;;2.00;1.90;;;11.80;99.90;;;12.07;100.00;96040.78;10392767;28;20232;-68
2023/10/27 10:31:25;;;;;;;1.92;1.40;;;11.90;99.90;;;11.98;100.00;96042.28;10392070;28;20598;-68
2023/10/27 10:36:29;;;;;;;3.38;2.00;;;11.80;99.90;;;12.07;100.00;96037.34;10393894;28;20234;-67
2023/10/27 10:41:59;;;;;;;2.00;1.80;;;11.70;99.90;;;12.15;100.00;96046.94;10389052;28;20236;-67
2023/10/27 10:47:04;;;;;;;2.00;1.90;;;11.70;99.90;;;12.11;100.00;96046.84;10383789;28;20256;-67
2023/10/27 10:52:09;;;;;;;2.42;2.13;;;11.70;99.90;;;12.13;100.00;96050.28;10380147;28;20230;-67
2023/10/27 10:57:13;;;;;;;2.47;2.13;;;11.70;99.90;;;12.23;100.00;96051.38;10387195;28;20229;-67
2023/10/27 11:02:21;;;;;;;3.15;2.00;;;11.70;99.90;;;12.17;100.00;96055.53;10385716;28;20257;-68
2023/10/27 11:07:28;;;;;;;2.22;2.00;;;11.70;99.90;;;12.28;100.00;96054.91;10387415;28;21080;-67
2023/10/27 11:12:31;;;;;;;4.72;1.80;;;11.80;99.90;;;12.44;100.00;96046.66;10383774;28;20233;-68
2023/10/27 11:17:49;;;;;;;2.22;2.00;;;11.90;99.90;;;12.58;100.00;96035.00;10373329;28;20783;-67
2023/10/27 11:23:08;;;;;;;3.83;2.13;;;12.10;99.90;;;12.68;100.00;96035.19;10378019;28;20307;-67
2023/10/27 11:28:22;;;;;;;2.20;1.80;;;12.20;99.90;;;12.69;100.00;96027.53;10386213;28;20225;-69
2023/10/27 11:33:25;;;;;;;3.17;2.20;;;12.20;99.90;;;13.03;100.00;96030.72;10382184;28;20290;-68
2023/10/27 11:38:34;;;;;;;2.85;2.35;;;12.60;99.90;;;13.21;100.00;96025.03;10385093;28;20628;-69
2023/10/27 11:43:37;;;;;;;3.25;2.00;;;13.00;99.90;;;13.36;100.00;96027.03;10383420;28;20229;-67
2023/10/27 11:48:41;;;;;;;2.83;1.70;;;13.10;99.90;;;13.55;100.00;96023.91;10384608;28;20600;-69
2023/10/27 11:53:46;;;;;;;3.38;2.03;;;13.30;99.90;;;13.75;100.00;96031.91;10385172;28;20732;-67
2023/10/27 11:58:49;;;;;;;4.30;1.80;;;13.30;99.90;;;13.79;99.57;96023.41;10391157;28;20272;-66
2023/10/27 12:03:52;;;;;;;3.33;2.00;;;13.50;99.90;;;13.99;99.20;96033.97;10396484;28;20907;-66
2023/10/27 12:08:57;;;;;;;2.67;1.70;;;13.70;99.90;;;14.04;97.28;96036.63;10396213;28;20229;-67
2023/10/27 12:14:00;;;;;;;2.38;1.70;;;13.60;99.90;;;13.83;96.65;96030.34;10397292;28;20234;-69
2023/10/27 12:19:03;;;;;;;2.40;1.63;;;13.40;99.90;;;13.81;93.75;96029.44;10396897;28;20728;-66
2023/10/27 12:24:11;;;;;;;3.47;1.75;;;13.30;99.90;;;13.57;96.45;96027.38;10390398;28;20238;-67
2023/10/27 12:29:14;;;;;;;3.38;2.03;;;13.00;99.90;;;13.44;97.54;96025.44;10388665;28;20656;-68
2023/10/27 12:34:17;;;;;;;3.10;1.80;;;12.90;99.90;;;13.31;97.63;96024.41;10386729;28;20233;-67
2023/10/27 12:39:23;;;;;;;3.25;2.22;;;12.80;99.90;;;13.37;96.70;96019.34;10386845;28;20647;-67
2023/10/27 12:44:26;;;;;;;2.83;1.65;;;12.80;99.90;;;13.51;99.29;96023.00;10390876;28;20599;-66
2023/10/27 12:49:29;;;;;;;2.67;1.90;;;13.00;99.90;;;13.83;95.94;96020.06;10389058;28;20317;-66
2023/10/27 12:54:37;;;;;;;4.30;2.00;;;13.20;99.90;;;13.71;95.90;96031.03;10389022;28;20240;-66
2023/10/27 12:59:40;;;;;;;2.65;2.28;;;13.20;99.90;;;13.69;96.74;96025.00;10389361;28;20229;-66
2023/10/27 13:04:43;;;;;;;4.13;1.80;;;13.20;99.90;;;13.81;93.45;96036.28;10388833;28;20222;-66
2023/10/27 13:09:48;;;;;;;2.45;1.73;;;13.20;99.90;;;13.83;89.65;96035.47;10388526;28;20218;-66
2023/10/27 13:14:51;;;;;;;3.13;1.88;;;13.30;99.90;;;13.78;91.51;96038.81;10391056;28;20227;-66
2023/10/27 13:19:55;;;;;;;1.85;1.75;;;13.30;99.90;;;13.94;87.24;96045.91;10387149;28;20772;-66
2023/10/27 13:24:59;;;;;;;2.92;1.80;;;13.40;99.90;;;13.80;86.67;96048.28;10391920;28;20575;-66
2023/10/27 13:30:05;;;;;;;2.72;1.63;;;13.40;99.90;;;13.84;87.45;96047.47;10388638;28;20794;-70
2023/10/27 13:35:09;;;;;;;1.92;1.40;;;13.20;99.90;;;13.85;88.51;96049.22;10391987;28;20233;-66
2023/10/27 13:40:18;;;;;;;1.48;1.33;;;13.10;99.90;;;13.98;88.08;96048.53;10385679;28;20236;-66
2023/10/27 13:45:22;;;;;;;2.00;1.75;;;13.50;99.90;;;14.26;87.33;96051.50;10381722;28;20319;-65
2023/10/27 13:50:25;;;;;;;3.03;1.60;;;13.90;99.90;;;14.32;84.30;96066.97;10388132;28;20222;-65
2023/10/27 13:55:29;;;;;;;2.15;1.27;;;13.90;99.90;;;14.29;84.71;96069.50;10390470;28;20233;-66
2023/10/27 14:00:33;;;;;;;1.63;1.52;;;13.80;99.90;;;14.30;83.83;96078.09;10382956;28;20228;-67
2023/10/27 14:05:37;;;;;;;2.38;1.40;;;13.80;99.90;;;14.17;86.01;96079.63;10390826;28;20611;-65
2023/10/27 14:10:42;;;;;;;2.15;1.70;;;13.80;99.90;;;14.17;83.74;96087.34;10382035;28;20232;-66
2023/10/27 14:15:45;;;;;;;1.42;1.27;;;13.70;99.90;;;14.18;84.78;96094.19;10385489;28;20225;-66
2023/10/27 14:20:50;;;;;;;1.50;1.40;;;13.60;99.90;;;14.12;85.94;96094.97;10384555;28;20232;-66
2023/10/27 14:25:55;;;;;;;2.22;1.52;;;13.70;99.90;;;13.98;86.43;96099.91;10384195;28;20689;-66
2023/10/27 14:30:59;;;;;;;1.38;1.27;;;13.40;99.90;;;13.95;87.10;96105.00;10384823;28;20775;-66
2023/10/27 14:36:06;;;;;;;2.25;1.80;;;13.40;99.90;;;13.98;86.04;96110.19;10386500;28;20225;-66
2023/10/27 14:41:11;;;;;;;1.73;1.52;;;13.30;99.90;;;13.96;86.66;96104.16;10386633;28;20252;-67
2023/10/27 14:46:15;;;;;;;1.60;1.50;;;13.30;99.90;;;13.88;88.06;96100.63;10385201;28;20222;-67
2023/10/27 14:51:19;;;;;;;1.60;1.50;;;13.30;99.90;;;14.10;87.53;96108.63;10389089;28;20229;-66
2023/10/27 14:56:24;;;;;;;2.22;2.03;;;13.50;99.90;;;14.11;87.03;96120.66;10383923;28;20693;-67
2023/10/27 15:01:29;;;;;;;2.10;2.00;;;13.40;99.90;;;13.94;87.59;96123.81;10394516;28;20311;-67
2023/10/27 15:06:32;;;;;;;4.45;2.50;;;13.20;99.90;;;13.82;89.13;96121.06;10375462;28;20326;-67
2023/10/27 15:11:37;;;;;;;3.25;3.00;;;13.20;99.90;;;13.84;87.77;96127.06;10382009;28;20234;-67
2023/10/27 15:16:42;;;;;;;1.73;1.63;;;13.10;99.90;;;13.72;89.44;96129.44;10380350;28;20303;-67
2023/10/27 15:21:46;;;;;;;1.63;1.50;;;13.00;99.90;;;13.82;89.37;96133.03;10385801;28;21085;-66
2023/10/27 15:26:51;;;;;;;2.70;1.65;;;13.10;99.90;;;13.67;91.01;96136.19;10388261;28;20228;-66
2023/10/27 15:31:54;;;;;;;1.80;1.70;;;12.90;99.90;;;13.67;90.66;96141.34;10390334;28;20243;-66
2023/10/27 15:36:58;;;;;;;1.75;1.63;;;12.80;99.90;;;13.69;88.05;96142.22;10397009;28;20226;-66
2023/10/27 15:42:03;;;;;;;1.67;1.58;;;13.00;99.90;;;13.66;86.50;96139.63;10398569;28;20321;-67
2023/10/27 15:47:06;;;;;;;3.10;2.90;;;13.00;99.90;;;13.60;85.77;96142.94;10392987;28;20225;-66
2023/10/27 15:52:09;;;;;;;2.05;1.90;;;13.00;99.90;;;13.40;87.12;96142.59;10395332;28;20616;-66
2023/10/27 15:57:14;;;;;;;2.63;2.42;;;12.70;99.90;;;13.38;88.04;96156.22;10397546;28;20229;-65
2023/10/27 16:02:17;;;;;;;3.42;1.85;;;12.70;99.90;;;13.49;87.55;96162.41;10391455;28;20236;-65
2023/10/27 16:07:20;;;;;;;2.10;1.67;;;12.80;99.90;;;13.45;87.01;96156.38;10397599;28;20221;-66
2023/10/27 16:12:25;;;;;;;2.47;2.20;;;12.80;99.90;;;13.25;89.14;96167.94;10393821;28;20257;-66
2023/10/27 16:17:28;;;;;;;4.57;4.18;;;12.60;99.90;;;13.12;91.50;96166.81;10397177;28;20236;-65
2023/10/27 16:22:32;;;;;;;4.10;3.17;;;12.40;99.90;;;13.05;91.97;96176.09;10386099;28;20791;-65
2023/10/27 16:27:37;;;;;;;2.97;2.78;;;12.30;99.90;;;12.90;92.74;96178.34;10391741;28;20360;-66
2023/10/27 16:32:40;;;;;;;4.55;4.15;;;12.20;99.90;;;12.73;95.19;96172.00;10386148;28;20234;-66
2023/10/27 16:37:44;;;;;;;27.10;21.50;;;12.10;99.90;;;12.64;96.65;96182.91;10392894;28;20245;-66
2023/10/27 16:42:49;;;;;;;44.53;32.67;;;11.90;99.90;;;12.44;97.49;96195.28;10391459;28;20237;-65
2023/10/27 16:47:52;;;;;;;28.88;22.55;;;11.70;99.90;;;12.31;99.40;96188.19;10391222;28;20241;-64
2023/10/27 16:52:56;;;;;;;18.35;16.45;;;11.50;99.90;;;12.17;100.00;96200.66;10390533;28;20236;-66
2023/10/27 16:58:02;;;;;;;17.48;15.68;;;11.40;99.90;;;11.99;100.00;96193.41;10389706;28;20237;-65
2023/10/27 17:03:06;;;;;;;11.73;10.52;;;11.20;99.90;;;11.79;100.00;96199.66;10388985;28;20240;-66
2023/10/27 17:08:09;;;;;;;8.23;7.43;;;11.00;99.90;;;11.60;100.00;96201.75;10390424;28;20232;-66
2023/10/27 17:13:16;;;;;;;9.43;8.52;;;10.80;99.90;;;11.39;100.00;96202.06;10387351;28;20241;-66
2023/10/27 17:18:19;;;;;;;11.32;10.23;;;10.70;99.90;;;11.30;100.00;96203.50;10384665;28;20237;-65
2023/10/27 17:23:22;;;;;;;19.80;17.80;;;10.60;99.90;;;11.11;100.00;96213.22;10391101;28;20257;-65
2023/10/27 17:28:28;;;;;;;14.60;13.18;;;10.40;99.90;;;11.01;100.00;96198.44;10385537;28;20256;-66
2023/10/27 17:33:31;;;;;;;12.40;11.32;;;10.30;99.90;;;10.92;100.00;96203.28;10383408;28;20263;-66
2023/10/27 17:38:34;;;;;;;11.48;10.45;;;10.20;99.90;;;10.76;100.00;96217.34;10381018;28;20316;-66
2023/10/27 17:43:39;;;;;;;9.95;8.95;;;10.10;99.90;;;10.64;100.00;96222.06;10384335;28;20222;-66
2023/10/27 17:48:43;;;;;;;7.45;6.88;;;9.90;99.90;;;10.52;100.00;96218.31;10381725;28;20556;-66
2023/10/27 17:53:51;;;;;;;8.60;7.80;;;9.80;99.90;;;10.49;100.00;96222.47;10383651;28;20226;-66
2023/10/27 17:58:55;;;;;;;8.02;7.32;;;9.80;99.90;;;10.38;100.00;96227.22;10381966;28;20229;-66
2023/10/27 18:03:59;;;;;;;9.52;8.73;;;9.70;99.90;;;10.28;100.00;96223.53;10383013;28;20238;-66
2023/10/27 18:09:03;;;;;;;8.15;7.35;;;9.60;99.90;;;10.18;100.00;96223.16;10386036;28;20225;-66
2023/10/27 18:14:08;;;;;;;32.65;29.33;;;9.50;99.90;;;10.11;100.00;96235.72;10385125;28;20229;-65
2023/10/27 18:19:11;;;;;;;14.93;13.63;;;9.50;99.90;;;10.01;100.00;96236.22;10384475;28;20229;-64
2023/10/27 18:24:14;;;;;;;8.48;7.65;;;9.40;99.90;;;9.91;100.00;96242.72;10382303;28;20237;-65
2023/10/27 18:29:19;;;;;;;6.70;6.00;;;9.30;99.90;;;9.90;100.00;96245.22;10380514;28;20221;-64
2023/10/27 18:34:22;;;;;;;7.60;6.80;;;9.20;99.90;;;9.85;100.00;96246.78;10387743;28;20234;-64
2023/10/27 18:39:25;;;;;;;14.48;11.30;;;9.20;99.90;;;9.79;100.00;96250.00;10378845;28;20229;-65
2023/10/27 18:44:30;;;;;;;12.20;10.80;;;9.20;99.90;;;9.78;100.00;96244.81;10380803;28;20608;-64
2023/10/27 18:49:36;;;;;;;13.10;11.80;;;9.20;99.90;;;9.68;100.00;96247.06;10381213;28;20229;-64
2023/10/27 18:54:43;;;;;;;13.90;12.50;;;9.10;99.90;;;9.65;100.00;96233.34;10378735;28;20782;-65
2023/10/27 18:59:47;;;;;;;9.93;9.07;;;9.00;99.90;;;9.62;100.00;96233.25;10385386;28;20230;-64
2023/10/27 19:04:50;;;;;;;5.38;4.88;;;9.00;99.90;;;9.34;100.00;96237.38;10380319;28;20232;-64
2023/10/27 19:10:09;;;;;;;4.35;4.05;;;8.70;99.90;;;9.41;100.00;96233.34;10381175;28;20233;-64
2023/10/27 19:15:13;;;;;;;4.97;4.50;;;8.80;99.90;;;9.20;100.00;96221.59;10390581;28;20234;-64
2023/10/27 19:20:17;;;;;;;5.13;4.72;;;8.70;99.90;;;9.32;100.00;96246.63;10391614;28;20618;-65
2023/10/27 19:25:20;;;;;;;6.20;5.63;;;8.70;99.90;;;9.26;100.00;96254.06;10393499;28;20732;-65
2023/10/27 19:30:25;;;;;;;4.88;4.30;;;8.60;99.90;;;9.22;100.00;96265.00;10392452;28;20233;-64
2023/10/27 19:35:29;;;;;;;8.52;7.78;;;8.60;99.90;;;9.17;100.00;96269.91;10390446;28;20248;-64
2023/10/27 19:40:32;;;;;;;7.93;7.32;;;8.60;99.90;;;9.06;100.00;96272.88;10390455;28;20599;-66
2023/10/27 19:45:37;;;;;;;4.95;4.32;;;8.40;99.90;;;8.92;100.00;96273.22;10393526;28;20226;-64
2023/10/27 19:50:42;;;;;;;4.75;4.30;;;8.40;99.90;;;8.97;100.00;96274.25;10391148;28;20226;-65
2023/10/27 19:55:45;;;;;;;5.80;5.25;;;8.40;99.90;;;8.97;100.00;96281.03;10398981;28;20308;-64
2023/10/27 20:00:51;;;;;;;5.40;4.80;;;8.40;99.90;;;8.94;100.00;96284.34;10392165;28;20617;-65
2023/10/27 20:05:54;;;;;;;4.53;4.03;;;8.40;99.90;;;9.00;100.00;96287.13;10389296;28;20317;-68
2023/10/27 20:11:08;;;;;;;5.78;4.80;;;8.40;99.90;;;9.02;100.00;96288.06;10393852;28;20222;-65
2023/10/27 20:16:15;;;;;;;10.75;7.32;;;8.40;99.90;;;8.95;100.00;96282.66;10396995;28;20603;-66
2023/10/27 20:21:18;;;;;;;6.93;5.13;;;8.40;99.90;;;9.01;100.00;96273.59;10390069;28;20634;-65
2023/10/27 20:26:22;;;;;;;4.55;4.15;;;8.40;99.90;;;9.05;100.00;96278.78;10391983;28;20233;-65
2023/10/27 20:31:29;;;;;;;3.95;3.65;;;8.50;99.90;;;9.14;100.00;96279.13;10391983;28;20321;-64
2023/10/27 20:36:32;;;;;;;3.75;2.72;;;8.50;99.90;;;9.32;100.00;96279.78;10391635;28;20256;-66
2023/10/27 20:41:35;;;;;;;5.25;4.63;;;8.60;99.90;;;9.05;100.00;96283.91;10394558;28;20232;-66
2023/10/27 20:46:40;;;;;;;4.10;3.80;;;8.30;99.90;;;8.77;100.00;96287.94;10389111;28;20217;-65
2023/10/27 20:51:43;;;;;;;4.40;4.00;;;8.20;99.90;;;8.65;100.00;96288.34;10387182;28;20235;-65
2023/10/27 20:56:46;;;;;;;4.70;4.30;;;8.10;99.90;;;8.65;100.00;96298.53;10390141;28;20229;-67
2023/10/27 21:01:51;;;;;;;10.98;9.30;;;8.10;99.90;;;8.64;100.00;96285.72;10390810;28;20233;-64